createdAt,value
2019-03-21T00:01:30.711Z,6.47
2019-03-21T00:03:34.480Z,7.50
2019-03-21T00:05:38.347Z,6.93
2019-03-21T00:07:42.121Z,7.17
2019-03-21T00:10:11.554Z,7.20
2019-03-21T00:12:15.353Z,7.20
2019-03-21T00:14:22.162Z,6.77
2019-03-21T00:16:25.905Z,6.60
2019-03-21T00:18:29.774Z,7.00
2019-03-21T00:20:33.703Z,7.73
2019-03-21T00:22:37.509Z,7.10
2019-03-21T00:24:41.387Z,8.20
2019-03-21T00:26:46.238Z,8.23
2019-03-21T00:28:50.023Z,7.83
2019-03-21T00:30:53.915Z,10.07
2019-03-21T00:32:58.068Z,9.60
2019-03-21T00:35:01.930Z,10.00
2019-03-21T00:37:05.681Z,9.93
2019-03-21T00:39:10.730Z,9.97
2019-03-21T00:41:14.586Z,7.57
2019-03-21T00:43:18.318Z,7.60
2019-03-21T00:45:22.227Z,6.27
2019-03-21T00:47:26.039Z,6.30
2019-03-21T00:49:29.828Z,6.43
2019-03-21T00:51:33.750Z,6.00
2019-03-21T00:53:37.595Z,6.30
2019-03-21T00:55:47.451Z,6.50
2019-03-21T00:57:51.180Z,5.90
2019-03-21T00:59:54.844Z,6.50
2019-03-21T01:01:58.649Z,6.13
2019-03-21T01:04:02.461Z,6.20
2019-03-21T01:06:06.370Z,5.63
2019-03-21T01:08:10.128Z,6.40
2019-03-21T01:10:25.879Z,6.20
2019-03-21T01:12:29.641Z,5.90
2019-03-21T01:14:33.437Z,6.87
2019-03-21T01:16:37.317Z,6.77
2019-03-21T01:18:43.785Z,8.10
2019-03-21T01:20:47.612Z,6.70
2019-03-21T01:22:51.493Z,6.50
2019-03-21T01:24:55.325Z,6.23
2019-03-21T01:26:59.129Z,6.20
2019-03-21T01:29:02.953Z,7.70
2019-03-21T01:31:06.884Z,5.67
2019-03-21T01:33:10.694Z,7.67
2019-03-21T01:35:14.455Z,8.87
2019-03-21T01:37:18.228Z,13.20
2019-03-21T01:39:22.010Z,10.93
2019-03-21T01:41:25.876Z,8.50
2019-03-21T01:43:29.717Z,8.43
2019-03-21T01:45:33.532Z,8.03
2019-03-21T01:47:37.363Z,6.10
2019-03-21T01:49:41.063Z,6.43
2019-03-21T01:51:44.924Z,6.77
2019-03-21T01:53:48.878Z,6.50
2019-03-21T01:55:52.630Z,5.90
2019-03-21T01:57:56.482Z,5.73
2019-03-21T02:00:00.433Z,5.57
2019-03-21T02:02:04.221Z,5.60
2019-03-21T02:04:08.077Z,6.77
2019-03-21T02:06:12.139Z,5.87
2019-03-21T02:08:15.890Z,5.80
2019-03-21T02:10:19.716Z,5.90
2019-03-21T02:12:23.623Z,5.90
2019-03-21T02:14:27.288Z,7.10
2019-03-21T02:16:31.186Z,7.30
2019-03-21T02:18:34.948Z,6.57
2019-03-21T02:20:38.853Z,6.70
2019-03-21T02:22:42.734Z,6.53
2019-03-21T02:24:46.589Z,7.10
2019-03-21T02:26:50.516Z,5.43
2019-03-21T02:28:54.267Z,6.10
2019-03-21T02:30:57.987Z,6.80
2019-03-21T02:33:10.681Z,6.03
2019-03-21T02:35:14.493Z,7.20
2019-03-21T02:37:18.426Z,6.00
2019-03-21T02:39:22.211Z,6.43
2019-03-21T02:41:26.082Z,5.43
2019-03-21T02:43:29.806Z,5.30
2019-03-21T02:45:33.543Z,5.77
2019-03-21T02:47:37.397Z,5.37
2019-03-21T02:49:42.186Z,5.47
2019-03-21T02:51:45.989Z,6.03
2019-03-21T02:53:49.851Z,5.77
2019-03-21T02:55:53.648Z,6.77
2019-03-21T02:57:57.584Z,5.80
2019-03-21T03:00:01.353Z,6.00
2019-03-21T03:02:06.199Z,5.47
2019-03-21T03:04:10.031Z,6.30
2019-03-21T03:06:13.834Z,5.43
2019-03-21T03:08:17.639Z,5.97
2019-03-21T03:10:36.447Z,5.63
2019-03-21T03:12:40.270Z,5.53
2019-03-21T03:14:44.140Z,6.27
2019-03-21T03:16:48.037Z,5.23
2019-03-21T03:18:52.005Z,5.73
2019-03-21T03:20:55.783Z,6.43
2019-03-21T03:22:59.550Z,6.33
2019-03-21T03:25:03.447Z,5.47
2019-03-21T03:27:07.357Z,7.07
2019-03-21T03:29:11.223Z,6.40
2019-03-21T03:31:16.192Z,5.67
2019-03-21T03:33:20.081Z,6.07
2019-03-21T03:35:23.918Z,6.27
2019-03-21T03:37:27.836Z,6.23
2019-03-21T03:39:31.518Z,6.07
2019-03-21T03:41:35.622Z,5.70
2019-03-21T03:43:39.572Z,5.63
2019-03-21T03:45:43.952Z,7.17
2019-03-21T03:47:47.782Z,5.70
2019-03-21T03:49:51.687Z,5.60
2019-03-21T03:51:55.550Z,5.20
2019-03-21T03:53:59.386Z,6.27
2019-03-21T03:56:03.408Z,5.30
2019-03-21T03:58:22.093Z,5.20
2019-03-21T04:00:25.911Z,5.40
2019-03-21T04:02:29.745Z,5.90
2019-03-21T04:04:33.715Z,6.67
2019-03-21T04:06:37.636Z,5.70
2019-03-21T04:08:41.441Z,5.57
2019-03-21T04:10:53.234Z,5.23
2019-03-21T04:12:57.241Z,5.50
2019-03-21T04:15:01.044Z,5.53
2019-03-21T04:17:04.905Z,5.43
2019-03-21T04:19:09.715Z,6.10
2019-03-21T04:21:16.972Z,4.83
2019-03-21T04:23:22.909Z,5.80
2019-03-21T04:25:35.234Z,5.10
2019-03-21T04:27:39.117Z,5.97
2019-03-21T04:29:42.882Z,5.53
2019-03-21T04:31:46.681Z,5.40
2019-03-21T04:33:53.304Z,5.60
2019-03-21T04:35:57.017Z,5.53
2019-03-21T04:38:00.787Z,5.80
2019-03-21T04:40:06.908Z,6.60
2019-03-21T04:42:10.731Z,7.23
2019-03-21T04:44:14.612Z,7.70
2019-03-21T04:46:18.442Z,7.27
2019-03-21T04:48:22.381Z,6.60
2019-03-21T04:50:37.498Z,6.00
2019-03-21T04:52:41.343Z,5.33
2019-03-21T04:54:45.190Z,6.03
2019-03-21T04:56:48.946Z,6.40
2019-03-21T04:58:57.999Z,5.93
2019-03-21T05:01:04.157Z,6.07
2019-03-21T05:03:10.841Z,5.03
2019-03-21T05:05:15.499Z,6.57
2019-03-21T05:09:45.218Z,5.90
2019-03-21T05:11:49.089Z,6.23
2019-03-21T05:13:53.011Z,7.20
2019-03-21T05:15:56.919Z,5.80
2019-03-21T05:18:06.751Z,6.13
2019-03-21T05:20:16.230Z,7.00
2019-03-21T05:22:20.005Z,6.33
2019-03-21T05:24:23.734Z,6.93
2019-03-21T05:26:27.726Z,6.77
2019-03-21T05:28:32.602Z,7.50
2019-03-21T05:30:57.304Z,6.33
2019-03-21T05:33:05.369Z,6.47
2019-03-21T05:35:10.501Z,5.20
2019-03-21T05:37:14.204Z,6.57
2019-03-21T05:39:18.106Z,5.43
2019-03-21T05:41:23.203Z,6.53
2019-03-21T05:43:33.325Z,6.30
2019-03-21T05:45:37.132Z,6.23
2019-03-21T05:47:41.023Z,7.23
2019-03-21T05:49:44.850Z,6.90
2019-03-21T05:51:48.600Z,6.77
2019-03-21T05:53:55.095Z,8.43
2019-03-21T05:55:59.171Z,8.83
2019-03-21T05:58:03.009Z,7.60
2019-03-21T06:00:16.258Z,6.90
2019-03-21T06:02:22.458Z,7.73
2019-03-21T06:04:26.975Z,6.60
2019-03-21T06:06:34.121Z,6.10
2019-03-21T06:08:40.352Z,6.97
2019-03-21T06:10:45.479Z,5.70
2019-03-21T06:12:49.440Z,5.93
2019-03-21T06:14:59.343Z,6.00
2019-03-21T06:17:03.255Z,6.30
2019-03-21T06:19:12.966Z,6.17
2019-03-21T06:21:38.904Z,6.70
2019-03-21T06:24:02.555Z,6.70
2019-03-21T06:26:25.653Z,6.47
2019-03-21T06:28:29.394Z,7.30
2019-03-21T06:30:33.345Z,7.33
2019-03-21T06:32:37.206Z,7.13
2019-03-21T06:34:41.197Z,6.80
2019-03-21T06:36:45.107Z,8.97
2019-03-21T06:38:50.095Z,9.00
2019-03-21T06:40:54.590Z,8.63
2019-03-21T06:42:59.473Z,7.50
2019-03-21T06:45:03.335Z,7.20
2019-03-21T06:47:07.148Z,7.50
2019-03-21T06:49:10.943Z,7.77
2019-03-21T06:51:14.797Z,8.30
2019-03-21T06:53:18.674Z,7.77
2019-03-21T06:55:24.593Z,8.37
2019-03-21T06:57:28.480Z,8.50
2019-03-21T06:59:32.271Z,6.83
2019-03-21T07:01:36.224Z,7.07
2019-03-21T07:03:41.067Z,6.90
2019-03-21T07:05:44.839Z,6.63
2019-03-21T07:07:48.671Z,6.27
2019-03-21T07:09:53.331Z,6.70
2019-03-21T07:11:57.362Z,6.93
2019-03-21T07:14:01.280Z,6.90
2019-03-21T07:16:06.301Z,7.00
2019-03-21T07:18:10.642Z,7.10
2019-03-21T07:20:14.850Z,7.17
2019-03-21T07:22:18.682Z,6.57
2019-03-21T07:24:22.431Z,6.40
2019-03-21T07:26:26.431Z,6.90
2019-03-21T07:28:30.305Z,6.93
2019-03-21T07:30:34.241Z,6.40
2019-03-21T07:32:38.041Z,7.60
2019-03-21T07:34:41.897Z,6.97
2019-03-21T07:36:45.650Z,7.37
2019-03-21T07:38:49.520Z,7.77
2019-03-21T07:40:53.345Z,7.73
2019-03-21T07:42:57.216Z,7.03
2019-03-21T07:45:01.126Z,7.60
2019-03-21T07:47:12.852Z,7.20
2019-03-21T07:49:10.675Z,6.87
2019-03-21T07:51:14.541Z,7.53
2019-03-21T07:53:18.529Z,7.93
2019-03-21T07:55:22.440Z,8.40
2019-03-21T07:57:26.422Z,7.80
2019-03-21T07:59:30.183Z,8.20
2019-03-21T08:01:34.356Z,7.97
2019-03-21T08:03:38.335Z,8.80
2019-03-21T08:05:42.826Z,7.70
2019-03-21T08:07:46.814Z,7.87
2019-03-21T08:09:50.971Z,7.23
2019-03-21T08:11:54.957Z,7.30
2019-03-21T08:13:58.866Z,8.40
2019-03-21T08:16:02.618Z,6.93
2019-03-21T08:18:06.713Z,7.33
2019-03-21T08:20:19.594Z,7.43
2019-03-21T08:22:23.507Z,7.40
2019-03-21T08:24:27.374Z,7.10
2019-03-21T08:26:31.213Z,6.40
2019-03-21T08:28:34.959Z,7.70
2019-03-21T08:30:41.717Z,7.63
2019-03-21T08:32:45.555Z,8.20
2019-03-21T08:34:49.364Z,7.10
2019-03-21T08:36:53.243Z,6.17
2019-03-21T08:38:57.087Z,6.57
2019-03-21T08:41:01.015Z,7.93
2019-03-21T08:43:04.810Z,7.63
2019-03-21T08:45:09.067Z,6.20
2019-03-21T08:47:13.015Z,6.20
2019-03-21T08:49:16.876Z,6.70
2019-03-21T08:51:20.824Z,7.00
2019-03-21T08:53:24.764Z,6.10
2019-03-21T08:55:28.712Z,6.87
2019-03-21T08:57:32.647Z,6.40
2019-03-21T08:59:36.454Z,6.60
2019-03-21T09:01:40.446Z,5.67
2019-03-21T09:03:44.431Z,5.63
2019-03-21T09:05:48.267Z,5.47
2019-03-21T09:07:52.096Z,5.50
2019-03-21T09:09:55.958Z,5.07
2019-03-21T09:11:59.744Z,5.00
2019-03-21T09:14:03.673Z,4.97
2019-03-21T09:16:07.498Z,4.67
2019-03-21T09:18:11.389Z,5.60
2019-03-21T09:20:15.150Z,5.37
2019-03-21T09:22:18.997Z,5.43
2019-03-21T09:24:23.066Z,4.63
2019-03-21T09:26:33.775Z,4.67
2019-03-21T09:28:37.780Z,4.70
2019-03-21T09:30:41.707Z,4.50
2019-03-21T09:32:45.624Z,4.30
2019-03-21T09:34:49.348Z,3.67
2019-03-21T09:36:53.184Z,3.87
2019-03-21T09:38:57.151Z,3.70
2019-03-21T09:41:00.995Z,3.73
2019-03-21T09:43:04.844Z,3.87
2019-03-21T09:45:09.502Z,3.67
2019-03-21T09:47:13.309Z,4.00
2019-03-21T09:49:17.193Z,4.87
2019-03-21T09:51:30.604Z,4.03
2019-03-21T09:53:26.600Z,4.20
2019-03-21T09:55:30.601Z,2.90
2019-03-21T09:57:34.481Z,3.00
2019-03-21T09:59:38.522Z,2.60
2019-03-21T10:01:42.511Z,2.87
2019-03-21T10:03:46.486Z,2.70
2019-03-21T10:05:50.258Z,2.60
2019-03-21T10:07:54.022Z,2.70
2019-03-21T10:09:57.889Z,2.10
2019-03-21T10:12:01.860Z,2.53
2019-03-21T10:14:06.207Z,2.53
2019-03-21T10:16:10.608Z,2.67
2019-03-21T10:18:14.487Z,2.70
2019-03-21T10:20:18.331Z,2.80
2019-03-21T10:22:22.207Z,2.40
2019-03-21T10:24:26.139Z,2.70
2019-03-21T10:26:29.815Z,2.40
2019-03-21T10:28:33.667Z,2.70
2019-03-21T10:30:38.927Z,2.60
2019-03-21T10:32:42.785Z,2.33
2019-03-21T10:34:46.732Z,2.40
2019-03-21T10:36:50.553Z,2.20
2019-03-21T10:38:54.422Z,2.80
2019-03-21T10:40:58.189Z,2.60
2019-03-21T10:43:02.036Z,2.00
2019-03-21T10:45:07.504Z,2.40
2019-03-21T10:47:11.304Z,2.30
2019-03-21T10:49:15.059Z,2.90
2019-03-21T10:51:18.651Z,2.20
2019-03-21T10:53:22.563Z,2.50
2019-03-21T10:55:26.408Z,2.20
2019-03-21T10:57:30.198Z,2.40
2019-03-21T10:59:33.978Z,2.17
2019-03-21T11:01:37.758Z,2.37
2019-03-21T11:03:41.443Z,2.30
2019-03-21T11:05:45.245Z,2.20
2019-03-21T11:07:48.990Z,1.90
2019-03-21T11:09:52.868Z,2.50
2019-03-21T11:11:58.297Z,2.20
2019-03-21T11:14:02.154Z,2.80
2019-03-21T11:16:06.834Z,2.03
2019-03-21T11:18:12.228Z,2.93
2019-03-21T11:20:22.796Z,3.63
2019-03-21T11:22:26.526Z,2.20
2019-03-21T11:24:30.387Z,2.40
2019-03-21T11:26:34.184Z,2.00
2019-03-21T11:28:39.283Z,2.10
2019-03-21T11:30:44.719Z,2.30
2019-03-21T11:32:48.604Z,2.30
2019-03-21T11:34:52.402Z,2.33
2019-03-21T11:36:56.281Z,2.20
2019-03-21T11:39:00.088Z,2.60
2019-03-21T11:41:03.900Z,2.03
2019-03-21T11:43:09.076Z,2.40
2019-03-21T11:45:15.172Z,2.50
2019-03-21T11:47:21.473Z,2.20
2019-03-21T11:49:25.249Z,2.20
2019-03-21T11:51:29.276Z,2.10
2019-03-21T11:53:33.056Z,2.63
2019-03-21T11:55:36.953Z,2.47
2019-03-21T11:57:40.763Z,2.50
2019-03-21T11:59:51.590Z,2.70
2019-03-21T12:01:50.011Z,2.30
2019-03-21T12:03:53.898Z,2.20
2019-03-21T12:05:58.716Z,2.90
2019-03-21T12:08:02.787Z,2.13
2019-03-21T12:10:08.968Z,2.30
2019-03-21T12:12:12.826Z,2.50
2019-03-21T12:14:16.585Z,2.10
2019-03-21T12:16:20.546Z,2.67
2019-03-21T12:18:24.428Z,2.20
2019-03-21T12:20:29.867Z,2.07
2019-03-21T12:22:33.770Z,2.33
2019-03-21T12:24:37.566Z,2.30
2019-03-21T12:26:41.479Z,2.20
2019-03-21T12:28:45.409Z,3.00
2019-03-21T12:30:51.324Z,2.50
2019-03-21T12:32:54.902Z,2.80
2019-03-21T12:35:00.546Z,3.07
2019-03-21T12:37:04.541Z,2.93
2019-03-21T12:39:09.141Z,3.00
2019-03-21T12:41:14.533Z,3.17
2019-03-21T12:43:18.419Z,3.03
2019-03-21T12:45:22.352Z,3.60
2019-03-21T12:47:31.018Z,3.53
2019-03-21T12:49:31.694Z,3.40
2019-03-21T12:51:35.769Z,3.47
2019-03-21T12:53:39.574Z,3.40
2019-03-21T12:55:43.542Z,3.43
2019-03-21T12:57:47.713Z,3.40
2019-03-21T12:59:51.570Z,3.70
2019-03-21T13:01:55.497Z,3.70
2019-03-21T13:03:59.354Z,3.10
2019-03-21T13:06:03.354Z,3.40
2019-03-21T13:08:07.541Z,3.90
2019-03-21T13:10:11.440Z,4.70
2019-03-21T13:12:17.900Z,4.53
2019-03-21T13:14:21.767Z,4.77
2019-03-21T13:16:25.765Z,4.23
2019-03-21T13:18:29.645Z,4.70
2019-03-21T13:20:33.628Z,3.53
2019-03-21T13:22:37.368Z,4.47
2019-03-21T13:24:41.258Z,4.00
2019-03-21T13:26:45.107Z,4.20
2019-03-21T13:28:48.976Z,5.00
2019-03-21T13:30:52.833Z,5.30
2019-03-21T13:32:56.759Z,4.77
2019-03-21T13:35:00.486Z,4.70
2019-03-21T13:37:05.693Z,5.00
2019-03-21T13:39:09.402Z,6.40
2019-03-21T13:41:13.238Z,7.07
2019-03-21T13:43:17.076Z,7.37
2019-03-21T13:45:20.923Z,7.23
2019-03-21T13:47:24.900Z,6.97
2019-03-21T13:49:28.660Z,7.10
2019-03-21T13:51:34.025Z,6.97
2019-03-21T13:53:37.779Z,6.97
2019-03-21T13:55:41.511Z,6.90
2019-03-21T13:57:45.266Z,6.63
2019-03-21T13:59:48.982Z,6.90
2019-03-21T14:01:52.903Z,6.73
2019-03-21T14:03:56.598Z,6.17
2019-03-21T14:06:00.424Z,6.43
2019-03-21T14:08:04.152Z,5.60
2019-03-21T14:10:09.196Z,6.03
2019-03-21T14:12:13.028Z,5.90
2019-03-21T14:14:16.806Z,5.10
2019-03-21T14:16:20.612Z,5.40
2019-03-21T14:18:24.447Z,5.03
2019-03-21T14:20:28.328Z,6.03
2019-03-21T14:22:38.269Z,6.07
2019-03-21T14:24:39.610Z,5.00
2019-03-21T14:26:43.723Z,5.10
2019-03-21T14:28:47.574Z,4.90
2019-03-21T14:30:51.572Z,5.60
2019-03-21T14:32:55.286Z,4.70
2019-03-21T14:34:58.968Z,4.93
2019-03-21T14:37:02.783Z,5.43
2019-03-21T14:39:07.647Z,5.70
2019-03-21T14:41:11.618Z,6.03
2019-03-21T14:43:15.435Z,5.57
2019-03-21T14:45:19.568Z,5.10
2019-03-21T14:47:23.419Z,7.23
2019-03-21T14:49:27.046Z,5.40
2019-03-21T14:51:30.814Z,5.40
2019-03-21T14:53:36.995Z,5.67
2019-03-21T14:55:47.356Z,5.93
2019-03-21T14:57:46.241Z,6.63
2019-03-21T14:59:49.972Z,6.10
2019-03-21T15:01:53.854Z,5.30
2019-03-21T15:03:59.862Z,5.73
2019-03-21T15:06:03.696Z,6.00
2019-03-21T15:08:09.002Z,5.70
2019-03-21T15:10:14.991Z,5.50
2019-03-21T15:12:19.788Z,5.90
2019-03-21T15:14:23.530Z,5.63
2019-03-21T15:16:27.387Z,5.40
2019-03-21T15:18:31.146Z,4.63
2019-03-21T15:20:34.924Z,4.77
2019-03-21T15:22:38.705Z,5.20
2019-03-21T15:24:42.464Z,5.07
2019-03-21T15:26:46.358Z,4.43
2019-03-21T15:28:50.175Z,4.47
2019-03-21T15:30:53.916Z,5.80
2019-03-21T15:32:57.700Z,5.00
2019-03-21T15:35:01.491Z,4.93
2019-03-21T15:37:05.271Z,5.07
2019-03-21T15:39:09.031Z,5.30
2019-03-21T15:41:12.895Z,5.27
2019-03-21T15:43:16.784Z,6.47
2019-03-21T15:45:23.582Z,5.53
2019-03-21T15:47:25.882Z,5.77
2019-03-21T15:49:29.622Z,6.53
2019-03-21T15:51:33.347Z,6.20
2019-03-21T15:53:37.192Z,6.27
2019-03-21T15:55:41.182Z,5.37
2019-03-21T15:57:46.899Z,5.97
2019-03-21T15:59:52.523Z,5.50
2019-03-21T16:01:56.240Z,5.43
2019-03-21T16:03:59.927Z,5.13
2019-03-21T16:06:05.306Z,5.30
2019-03-21T16:08:09.524Z,5.63
2019-03-21T16:10:13.365Z,4.67
2019-03-21T16:12:17.196Z,5.00
2019-03-21T16:14:20.899Z,5.00
2019-03-21T16:16:24.697Z,4.93
2019-03-21T16:18:28.498Z,5.27
2019-03-21T16:20:33.448Z,5.00
2019-03-21T16:22:37.237Z,4.60
2019-03-21T16:24:40.921Z,4.57
2019-03-21T16:26:44.768Z,4.40
2019-03-21T16:28:48.512Z,5.00
2019-03-21T16:30:52.215Z,5.20
2019-03-21T16:32:57.666Z,5.40
2019-03-21T16:35:01.431Z,4.60
2019-03-21T16:37:05.199Z,4.67
2019-03-21T16:39:08.959Z,4.40
2019-03-21T16:41:12.790Z,4.17
2019-03-21T16:43:16.625Z,4.93
2019-03-21T16:45:21.435Z,4.60
2019-03-21T16:47:25.308Z,4.77
2019-03-21T16:49:29.148Z,4.80
2019-03-21T16:51:32.980Z,5.00
2019-03-21T16:53:37.983Z,4.30
2019-03-21T16:55:41.817Z,5.10
2019-03-21T16:57:45.597Z,4.80
2019-03-21T16:59:49.400Z,5.10
2019-03-21T17:01:53.343Z,5.07
2019-03-21T17:03:57.214Z,4.93
2019-03-21T17:06:01.029Z,4.20
2019-03-21T17:08:11.559Z,4.57
2019-03-21T17:10:13.698Z,4.87
2019-03-21T17:12:17.504Z,4.60
2019-03-21T17:14:21.166Z,4.80
2019-03-21T17:16:25.014Z,4.60
2019-03-21T17:18:29.090Z,4.70
2019-03-21T17:20:33.407Z,5.07
2019-03-21T17:22:37.404Z,5.30
2019-03-21T17:24:41.640Z,4.10
2019-03-21T17:26:46.987Z,4.33
2019-03-21T17:28:50.805Z,5.30
2019-03-21T17:30:54.575Z,4.97
2019-03-21T17:32:58.343Z,5.47
2019-03-21T17:35:02.077Z,4.90
2019-03-21T17:37:05.987Z,5.93
2019-03-21T17:39:10.040Z,4.60
2019-03-21T17:41:13.873Z,4.23
2019-03-21T17:43:17.665Z,4.70
2019-03-21T17:45:21.390Z,5.00
2019-03-21T17:47:25.138Z,4.13
2019-03-21T17:49:28.905Z,4.70
2019-03-21T17:51:32.771Z,4.33
2019-03-21T17:53:36.465Z,4.20
2019-03-21T17:55:42.288Z,4.33
2019-03-21T17:57:45.687Z,4.93
2019-03-21T17:59:49.483Z,5.40
2019-03-21T18:01:54.232Z,5.13
2019-03-21T18:03:58.077Z,4.37
2019-03-21T18:06:01.847Z,4.40
2019-03-21T18:08:05.699Z,4.53
2019-03-21T18:10:24.130Z,4.50
2019-03-21T18:12:27.968Z,5.13
2019-03-21T18:14:31.803Z,3.90
2019-03-21T18:16:35.553Z,4.57
2019-03-21T18:18:39.394Z,4.20
2019-03-21T18:20:43.241Z,4.57
2019-03-21T18:22:47.167Z,4.50
2019-03-21T18:24:53.976Z,4.47
2019-03-21T18:26:56.565Z,4.80
2019-03-21T18:29:02.525Z,4.93
2019-03-21T18:31:07.923Z,3.87
2019-03-21T18:33:11.810Z,5.17
2019-03-21T18:35:15.915Z,4.00
2019-03-21T18:37:20.984Z,4.70
2019-03-21T18:39:24.729Z,4.70
2019-03-21T18:41:28.722Z,5.50
2019-03-21T18:43:32.825Z,5.97
2019-03-21T18:45:38.799Z,6.37
2019-03-21T18:47:42.651Z,7.70
2019-03-21T18:49:46.644Z,6.93
2019-03-21T18:51:50.478Z,8.40
2019-03-21T18:53:54.377Z,7.60
2019-03-21T18:55:58.184Z,8.30
2019-03-21T18:58:02.884Z,8.50
2019-03-21T19:00:18.087Z,10.00
2019-03-21T19:02:21.818Z,9.13
2019-03-21T19:04:25.815Z,10.30
2019-03-21T19:06:29.500Z,10.60
2019-03-21T19:08:33.319Z,11.37
2019-03-21T19:10:37.133Z,10.37
2019-03-21T19:12:40.981Z,10.37
2019-03-21T19:14:44.759Z,8.70
2019-03-21T19:16:48.631Z,8.03
2019-03-21T19:18:52.389Z,9.03
2019-03-21T19:20:56.241Z,7.73
2019-03-21T19:22:59.988Z,10.27
2019-03-21T19:25:17.470Z,8.63
2019-03-21T19:27:10.824Z,13.37
2019-03-21T19:29:15.147Z,12.33
2019-03-21T19:31:19.097Z,12.73
2019-03-21T19:33:22.841Z,12.47
2019-03-21T19:35:26.675Z,13.20
2019-03-21T19:37:30.476Z,11.40
2019-03-21T19:39:34.848Z,13.30
2019-03-21T19:41:38.554Z,11.37
2019-03-21T19:43:43.486Z,10.53
2019-03-21T19:45:47.209Z,10.73
2019-03-21T19:47:51.090Z,9.00
2019-03-21T19:49:54.825Z,8.50
2019-03-21T19:51:58.544Z,8.83
2019-03-21T19:54:02.365Z,7.20
2019-03-21T19:56:08.692Z,7.10
2019-03-21T19:58:11.618Z,7.10
2019-03-21T20:00:20.511Z,6.57
2019-03-21T20:02:24.307Z,7.30
2019-03-21T20:04:28.083Z,8.60
2019-03-21T20:06:31.873Z,9.07
2019-03-21T20:08:35.713Z,10.30
2019-03-21T20:10:39.627Z,9.50
2019-03-21T20:12:43.402Z,10.23
2019-03-21T20:14:48.798Z,9.80
2019-03-21T20:16:52.534Z,8.90
2019-03-21T20:18:56.528Z,9.00
2019-03-21T20:21:01.964Z,8.93
2019-03-21T20:23:06.619Z,9.27
2019-03-21T20:25:11.699Z,8.60
2019-03-21T20:27:15.487Z,8.80
2019-03-21T20:29:19.260Z,8.27
2019-03-21T20:31:24.753Z,8.17
2019-03-21T20:33:30.165Z,8.87
2019-03-21T20:35:33.937Z,9.10
2019-03-21T20:37:37.684Z,9.97
2019-03-21T20:39:41.522Z,11.77
2019-03-21T20:41:45.344Z,14.03
2019-03-21T20:43:49.115Z,17.17
2019-03-21T20:45:52.944Z,22.43
2019-03-21T20:47:57.090Z,24.50
2019-03-21T20:50:01.895Z,26.17
2019-03-21T20:52:05.642Z,26.07
2019-03-21T20:54:09.503Z,24.90
2019-03-21T20:56:13.246Z,24.13
2019-03-21T20:58:17.111Z,23.40
2019-03-21T21:00:24.085Z,24.27
2019-03-21T21:02:27.826Z,27.73
2019-03-21T21:04:31.667Z,30.27
2019-03-21T21:06:35.386Z,30.80
2019-03-21T21:08:39.267Z,28.33
2019-03-21T21:10:43.204Z,33.93
2019-03-21T21:12:46.898Z,42.07
2019-03-21T21:14:50.847Z,44.03
2019-03-21T21:16:54.737Z,40.17
2019-03-21T21:18:59.160Z,37.40
2019-03-21T21:21:02.942Z,33.97
2019-03-21T21:23:06.682Z,35.13
2019-03-21T21:25:10.611Z,36.07
2019-03-21T21:27:14.280Z,36.03
2019-03-21T21:29:18.076Z,33.90
2019-03-21T21:31:21.717Z,32.00
2019-03-21T21:33:25.454Z,28.00
2019-03-21T21:35:29.207Z,24.70
2019-03-21T21:37:32.991Z,22.33
2019-03-21T21:39:36.767Z,21.90
2019-03-21T21:41:40.455Z,14.60
2019-03-21T21:43:44.284Z,8.73
2019-03-21T21:45:47.954Z,7.97
2019-03-21T21:47:51.756Z,8.93
2019-03-21T21:49:55.526Z,7.30
2019-03-21T21:51:59.297Z,7.00
2019-03-21T21:54:03.146Z,7.13
2019-03-21T21:56:17.153Z,6.70
2019-03-21T21:58:12.253Z,7.53
2019-03-21T22:00:18.410Z,6.50
2019-03-21T22:02:22.205Z,5.63
2019-03-21T22:04:26.076Z,5.57
2019-03-21T22:06:30.310Z,5.93
2019-03-21T22:08:34.358Z,6.47
2019-03-21T22:10:38.212Z,7.00
2019-03-21T22:12:42.970Z,9.17
2019-03-21T22:14:47.028Z,9.67
2019-03-21T22:16:50.893Z,11.23
2019-03-21T22:18:54.749Z,11.63
2019-03-21T22:20:58.586Z,11.90
2019-03-21T22:23:02.392Z,11.90
2019-03-21T22:25:08.384Z,12.20
2019-03-21T22:27:12.255Z,12.13
2019-03-21T22:29:16.209Z,12.13
2019-03-21T22:31:20.061Z,11.00
2019-03-21T22:33:23.781Z,11.40
2019-03-21T22:35:27.559Z,9.93
2019-03-21T22:37:31.372Z,9.30
2019-03-21T22:39:35.235Z,8.37
2019-03-21T22:41:38.975Z,8.10
2019-03-21T22:43:42.745Z,7.63
2019-03-21T22:45:46.576Z,7.00
2019-03-21T22:47:50.916Z,9.67
2019-03-21T22:49:54.824Z,10.77
2019-03-21T22:51:58.599Z,10.53
2019-03-21T22:54:02.260Z,9.13
2019-03-21T22:56:05.997Z,7.50
2019-03-21T22:58:09.775Z,8.50
2019-03-21T23:00:22.607Z,7.17
2019-03-21T23:02:26.377Z,6.80
2019-03-21T23:04:30.141Z,8.03
2019-03-21T23:06:33.984Z,8.40
2019-03-21T23:08:37.795Z,8.70
2019-03-21T23:10:41.677Z,9.70
2019-03-21T23:12:45.427Z,7.70
2019-03-21T23:14:49.211Z,9.07
2019-03-21T23:16:52.884Z,9.00
2019-03-21T23:18:56.583Z,7.87
2019-03-21T23:21:00.387Z,7.50
2019-03-21T23:23:04.204Z,8.10
2019-03-21T23:25:08.952Z,7.83
2019-03-21T23:27:12.779Z,6.33
2019-03-21T23:29:16.571Z,6.67
2019-03-21T23:31:20.254Z,5.97
2019-03-21T23:33:24.012Z,6.20
2019-03-21T23:35:27.861Z,5.60
2019-03-21T23:37:31.694Z,5.80
2019-03-21T23:39:35.398Z,6.13
2019-03-21T23:41:39.197Z,5.83
2019-03-21T23:43:42.938Z,5.83
2019-03-21T23:45:46.756Z,6.20
2019-03-21T23:47:50.576Z,6.27
2019-03-21T23:49:54.444Z,6.20
2019-03-21T23:51:58.272Z,5.23
2019-03-21T23:54:01.892Z,6.00
2019-03-21T23:56:05.760Z,5.50
2019-03-21T23:58:09.500Z,5.90
